createdAt,value
2022-12-22T00:01:04.863Z,99760.22
2022-12-22T00:06:28.292Z,99756.59
2022-12-22T00:11:48.399Z,99770.22
2022-12-22T00:17:08.465Z,99777.94
2022-12-22T00:22:41.201Z,99778.28
2022-12-22T00:28:01.306Z,99766.38
2022-12-22T00:33:23.801Z,99745.53
2022-12-22T00:38:43.820Z,99745.06
2022-12-22T00:44:04.072Z,99739.03
2022-12-22T00:49:24.142Z,99746.78
2022-12-22T00:54:44.156Z,99738.22
2022-12-22T01:00:05.461Z,99733.41
2022-12-22T01:05:26.188Z,99755.28
2022-12-22T01:10:46.259Z,99744.25
2022-12-22T01:16:06.354Z,99755.66
2022-12-22T01:21:27.243Z,99752.31
2022-12-22T01:26:47.037Z,99733.00
2022-12-22T01:32:06.902Z,99736.00
2022-12-22T01:37:27.022Z,99724.38
2022-12-22T01:42:49.817Z,99737.78
2022-12-22T01:48:09.870Z,99739.53
2022-12-22T01:53:36.310Z,99724.66
2022-12-22T01:59:00.894Z,99721.88
2022-12-22T02:04:21.047Z,99714.16
2022-12-22T02:09:44.197Z,99719.50
2022-12-22T02:15:19.874Z,99701.16
2022-12-22T02:20:48.983Z,99700.63
2022-12-22T02:26:18.112Z,99707.31
2022-12-22T02:31:38.124Z,99703.31
2022-12-22T02:37:41.004Z,99697.69
2022-12-22T02:43:13.225Z,99692.41
2022-12-22T02:48:40.713Z,99679.72
2022-12-22T02:54:00.914Z,99674.59
2022-12-22T02:59:21.003Z,99675.16
2022-12-22T03:04:41.234Z,99664.72
2022-12-22T03:10:01.306Z,99654.78
2022-12-22T03:15:21.366Z,99661.84
2022-12-22T03:20:41.504Z,99656.16
2022-12-22T03:25:53.200Z,99659.47
2022-12-22T03:31:04.614Z,99655.19
2022-12-22T03:36:07.138Z,99649.06
2022-12-22T03:41:28.555Z,99640.28
2022-12-22T03:46:33.079Z,99635.69
2022-12-22T03:51:36.202Z,99633.19
2022-12-22T03:56:37.673Z,99620.59
2022-12-22T04:01:42.456Z,99627.63
2022-12-22T04:06:44.566Z,99610.13
2022-12-22T04:12:04.654Z,99616.56
2022-12-22T04:17:07.337Z,99611.00
2022-12-22T04:22:08.895Z,99620.66
2022-12-22T04:27:10.340Z,99607.34
2022-12-22T04:32:11.837Z,99610.78
2022-12-22T04:37:17.400Z,99599.50
2022-12-22T04:42:19.375Z,99587.00
2022-12-22T04:47:20.810Z,99573.84
2022-12-22T04:52:22.695Z,99563.84
2022-12-22T04:57:24.176Z,99567.56
2022-12-22T05:02:25.692Z,99578.31
2022-12-22T05:07:27.265Z,99569.13
2022-12-22T05:12:49.110Z,99577.72
2022-12-22T05:17:50.740Z,99568.22
2022-12-22T05:22:52.221Z,99570.56
2022-12-22T05:27:53.699Z,99567.47
2022-12-22T05:32:55.182Z,99557.34
2022-12-22T05:37:56.709Z,99553.91
2022-12-22T05:42:58.150Z,99554.31
2022-12-22T05:47:59.575Z,99544.16
2022-12-22T05:53:01.025Z,99541.84
2022-12-22T05:58:02.657Z,99528.38
2022-12-22T06:03:04.315Z,99528.56
2022-12-22T06:08:05.762Z,99523.03
2022-12-22T06:13:07.208Z,99526.28
2022-12-22T06:18:08.632Z,99524.28
2022-12-22T06:23:10.058Z,99527.09
2022-12-22T06:28:11.482Z,99521.97
2022-12-22T06:33:12.920Z,99518.75
2022-12-22T06:38:14.364Z,99519.63
2022-12-22T06:43:15.859Z,99512.84
2022-12-22T06:48:17.400Z,99503.94
2022-12-22T06:53:18.842Z,99511.78
2022-12-22T06:58:20.273Z,99505.56
2022-12-22T07:03:21.809Z,99494.75
2022-12-22T07:08:23.352Z,99496.47
2022-12-22T07:13:31.565Z,99485.56
2022-12-22T07:18:35.282Z,99481.28
2022-12-22T07:23:37.565Z,99482.66
2022-12-22T07:28:40.963Z,99469.69
2022-12-22T07:33:42.419Z,99479.09
2022-12-22T07:38:46.637Z,99472.25
2022-12-22T07:43:48.121Z,99450.19
2022-12-22T07:49:08.266Z,99453.06
2022-12-22T07:54:12.093Z,99440.31
2022-12-22T07:59:14.352Z,99449.97
2022-12-22T08:04:15.944Z,99427.06
2022-12-22T08:09:18.105Z,99434.66
2022-12-22T08:14:19.567Z,99424.88
2022-12-22T08:19:21.011Z,99422.97
2022-12-22T08:24:22.594Z,99430.34
2022-12-22T08:29:29.110Z,99406.22
2022-12-22T08:34:30.801Z,99415.22
2022-12-22T08:39:37.561Z,99406.59
2022-12-22T08:44:39.133Z,99398.06
2022-12-22T08:49:41.134Z,99392.91
2022-12-22T08:54:42.778Z,99381.13
2022-12-22T08:59:44.246Z,99387.84
2022-12-22T09:04:45.801Z,99392.94
2022-12-22T09:09:47.243Z,99386.84
2022-12-22T09:14:48.834Z,99385.66
2022-12-22T09:19:50.287Z,99387.09
2022-12-22T09:24:51.736Z,99388.59
2022-12-22T09:29:53.199Z,99373.09
2022-12-22T09:34:54.638Z,99366.84
2022-12-22T09:39:56.108Z,99362.19
2022-12-22T09:44:57.601Z,99341.94
2022-12-22T09:49:59.513Z,99340.00
2022-12-22T09:55:12.384Z,99331.44
2022-12-22T10:00:16.263Z,99327.16
2022-12-22T10:05:30.967Z,99319.00
2022-12-22T10:10:32.544Z,99313.13
2022-12-22T10:15:39.883Z,99290.91
2022-12-22T10:20:44.685Z,99291.28
2022-12-22T10:31:22.922Z,99287.16
2022-12-22T10:36:28.001Z,99287.13
2022-12-22T10:41:32.877Z,99282.88
2022-12-22T10:46:48.181Z,99262.59
2022-12-22T10:52:09.911Z,99270.44
2022-12-22T10:57:14.043Z,99267.50
2022-12-22T11:02:22.619Z,99268.47
2022-12-22T11:07:25.017Z,99249.19
2022-12-22T11:12:47.409Z,99252.13
2022-12-22T11:17:57.796Z,99242.97
2022-12-22T11:23:18.322Z,99240.41
2022-12-22T11:28:45.944Z,99234.91
2022-12-22T11:34:20.779Z,99230.66
2022-12-22T11:45:29.264Z,99207.47
2022-12-22T11:51:00.345Z,99183.91
2022-12-22T11:56:32.098Z,99181.13
2022-12-22T12:01:48.722Z,99175.47
2022-12-22T12:07:00.921Z,99158.84
2022-12-22T12:12:13.116Z,99157.66
2022-12-22T12:17:25.123Z,99137.44
2022-12-22T12:22:52.803Z,99139.06
2022-12-22T12:28:05.439Z,99134.91
2022-12-22T12:33:28.492Z,99123.94
2022-12-22T12:39:07.440Z,99120.50
2022-12-22T12:44:04.876Z,99113.94
2022-12-22T12:49:36.246Z,99119.53
2022-12-22T12:54:41.583Z,99118.44
2022-12-22T12:59:47.238Z,99120.25
2022-12-22T13:05:14.330Z,99119.00
2022-12-22T13:10:21.955Z,99130.03
2022-12-22T13:15:37.475Z,99123.75
2022-12-22T13:20:42.548Z,99119.00
2022-12-22T13:25:55.096Z,99115.84
2022-12-22T13:31:13.826Z,99114.22
2022-12-22T13:36:22.026Z,99101.38
2022-12-22T13:48:06.135Z,99105.72
2022-12-22T13:53:34.439Z,99104.31
2022-12-22T13:58:41.548Z,99099.16
2022-12-22T14:04:04.794Z,99091.25
2022-12-22T14:09:18.464Z,99080.06
2022-12-22T14:14:24.665Z,99078.00
2022-12-22T14:19:33.720Z,99084.13
2022-12-22T14:24:44.505Z,99094.13
2022-12-22T14:29:46.067Z,99093.00
2022-12-22T14:34:53.988Z,99095.28
2022-12-22T14:39:56.392Z,99099.75
2022-12-22T14:44:58.346Z,99095.91
2022-12-22T14:50:16.885Z,99096.72
2022-12-22T14:55:25.298Z,99095.28
2022-12-22T15:00:34.008Z,99104.09
2022-12-22T15:05:39.060Z,99095.59
2022-12-22T15:10:44.645Z,99103.03
2022-12-22T15:15:46.068Z,99100.19
2022-12-22T15:20:47.492Z,99096.00
2022-12-22T15:25:48.989Z,99100.41
2022-12-22T15:30:50.425Z,99089.66
2022-12-22T15:35:52.538Z,99091.28
2022-12-22T15:41:00.271Z,99080.31
2022-12-22T15:46:03.677Z,99084.00
2022-12-22T15:51:08.579Z,99077.88
2022-12-22T15:56:18.088Z,99074.66
2022-12-22T16:01:20.410Z,99079.78
2022-12-22T16:06:22.823Z,99079.19
2022-12-22T16:11:25.058Z,99076.94
2022-12-22T16:16:26.527Z,99078.78
2022-12-22T16:21:31.619Z,99078.09
2022-12-22T16:26:33.139Z,99070.47
2022-12-22T16:31:34.625Z,99081.13
2022-12-22T16:36:36.084Z,99078.72
2022-12-22T16:41:37.920Z,99074.22
2022-12-22T16:46:39.603Z,99071.09
2022-12-22T16:51:49.625Z,99072.78
2022-12-22T16:56:57.449Z,99062.84
2022-12-22T17:01:59.045Z,99070.22
2022-12-22T17:07:02.168Z,99071.59
2022-12-22T17:12:10.746Z,99069.28
2022-12-22T17:17:32.889Z,99068.06
2022-12-22T17:22:39.180Z,99067.25
2022-12-22T17:27:40.839Z,99075.06
2022-12-22T17:32:42.385Z,99072.69
2022-12-22T17:37:46.186Z,99070.56
2022-12-22T17:42:47.773Z,99066.19
2022-12-22T17:47:49.212Z,99073.97
2022-12-22T17:52:50.764Z,99064.31
2022-12-22T17:57:53.542Z,99061.88
2022-12-22T18:02:55.605Z,99065.66
2022-12-22T18:07:58.948Z,99064.88
2022-12-22T18:13:01.582Z,99062.13
2022-12-22T18:18:03.104Z,99066.69
2022-12-22T18:23:04.904Z,99066.69
2022-12-22T18:28:06.767Z,99068.97
2022-12-22T18:33:08.943Z,99066.97
2022-12-22T18:38:32.958Z,99074.88
2022-12-22T18:43:34.430Z,99078.63
2022-12-22T18:48:35.890Z,99073.78
2022-12-22T18:53:37.313Z,99076.91
2022-12-22T18:58:39.790Z,99073.78
2022-12-22T19:03:41.229Z,99073.31
2022-12-22T19:08:45.989Z,99076.97
2022-12-22T19:13:51.965Z,99092.81
2022-12-22T19:18:55.097Z,99091.63
2022-12-22T19:23:56.542Z,99100.97
2022-12-22T19:29:01.460Z,99098.63
2022-12-22T19:34:05.421Z,99094.78
2022-12-22T19:39:06.909Z,99095.66
2022-12-22T19:44:17.196Z,99098.44
2022-12-22T19:49:22.406Z,99098.81
2022-12-22T19:54:24.379Z,99110.81
2022-12-22T19:59:38.531Z,99103.47
2022-12-22T20:04:40.705Z,99105.19
2022-12-22T20:09:42.257Z,99103.66
2022-12-22T20:14:43.762Z,99117.09
2022-12-22T20:19:45.187Z,99124.41
2022-12-22T20:24:48.669Z,99134.59
2022-12-22T20:29:50.180Z,99147.31
2022-12-22T20:34:51.627Z,99143.78
2022-12-22T20:39:53.081Z,99155.66
2022-12-22T20:45:02.791Z,99151.72
2022-12-22T20:50:23.904Z,99162.22
2022-12-22T20:55:28.438Z,99177.38
2022-12-22T21:00:29.891Z,99183.28
2022-12-22T21:05:31.370Z,99193.50
2022-12-22T21:10:32.782Z,99190.03
2022-12-22T21:15:34.624Z,99191.41
2022-12-22T21:20:36.052Z,99196.78
2022-12-22T21:25:43.181Z,99191.94
2022-12-22T21:30:47.838Z,99211.50
2022-12-22T21:35:50.849Z,99215.03
2022-12-22T21:40:52.318Z,99222.47
2022-12-22T21:45:53.858Z,99232.25
2022-12-22T21:50:55.724Z,99238.72
2022-12-22T21:55:57.145Z,99236.88
2022-12-22T22:00:58.624Z,99232.69
2022-12-22T22:06:00.116Z,99248.84
2022-12-22T22:11:01.537Z,99261.00
2022-12-22T22:16:03.113Z,99265.16
2022-12-22T22:21:07.690Z,99266.91
2022-12-22T22:26:09.851Z,99266.91
2022-12-22T22:31:11.683Z,99265.94
2022-12-22T22:36:13.765Z,99266.84
2022-12-22T22:41:15.277Z,99263.25
2022-12-22T22:46:16.749Z,99255.00
2022-12-22T22:51:18.185Z,99266.81
2022-12-22T22:56:19.613Z,99266.34
2022-12-22T23:01:21.076Z,99261.47
2022-12-22T23:06:22.573Z,99268.75
2022-12-22T23:11:24.030Z,99270.25
2022-12-22T23:16:25.704Z,99267.84
2022-12-22T23:21:27.511Z,99271.28
2022-12-22T23:26:28.985Z,99266.41
2022-12-22T23:31:34.381Z,99261.53
2022-12-22T23:36:35.865Z,99249.28
2022-12-22T23:41:37.353Z,99239.94
2022-12-22T23:46:40.102Z,99245.66
2022-12-22T23:51:41.608Z,99251.81
2022-12-22T23:56:43.068Z,99251.31
